ADDS METAR Data INFO
IDs: Format: Raw Decoded Include TAF

Data at: 0123 UTC 20 Feb 2018

KPPO 200115Z AUTO 20009KT 7SM -RA SCT009 BKN017 OVC025 13/12 A2990 RMK AO2 P0001 T01260122
KPPO 200055Z AUTO 21012G15KT 7SM -RA SCT011 BKN029 OVC090 13/12 A2990 RMK AO2 P0003 T01250121
KPPO 200035Z AUTO 18012G20KT 7SM -RA SCT009 BKN012 OVC028 13/12 A2988 RMK AO2 P0002 T01260122
KPPO 200015Z AUTO 21012G17KT 10SM RA BKN009 OVC013 13/12 A2991 RMK AO2 P0001 T01250122
KPPO 192355Z AUTO 21013G20KT 7SM -RA BKN009 OVC013 13/12 A2990 RMK AO2 P0005 60015 T01250122 10125 20085
KPPO 192335Z AUTO 20012G16KT 4SM RA SCT005 BKN011 OVC019 12/12 A2990 RMK AO2 P0004 T01210120
KPPO 192315Z AUTO 20010G16KT 2SM +RA OVC005 12/12 A2990 RMK AO2 VIS 1 1/2V3 LTG DSNT W P0002 T01200119
KPPO 192255Z AUTO 23009KT 2 1/2SM +RA BKN005 OVC009 12/12 A2989 RMK AO2 P0004 T01180116
KPPO 192235Z AUTO 22011G17KT 2 1/2SM RA SCT009 OVC013 12/12 A2988 RMK AO2 P0001 T01200117
KPPO 192215Z AUTO 22011G18KT 5SM DZ OVC013 12/12 A2988 RMK AO2 T01180115
KPPO 192155Z AUTO 22012KT 7SM RA OVC013 12/11 A2987 RMK AO2 T01150113
KPPO 192135Z AUTO 22013G20KT 10SM OVC013 11/11 A2987 RMK AO2 T01140114
KPPO 192115Z AUTO 21012KT 4SM -DZ OVC013 11/11 A2986 RMK AO2 T01120111
KPPO 192055Z AUTO 21013KT 2SM +DZ OVC011 11/11 A2985 RMK AO2 P0001 60006 T01100110
KPPO 192035Z AUTO 22009KT 7SM OVC011 10/10 A2984 RMK AO2 T01040103
KPPO 192015Z AUTO 21010KT 7SM OVC011 11/11 A2982 RMK AO2 T01060106
KPPO 191955Z AUTO 22011KT 3SM -DZ OVC011 11/11 A2983 RMK AO2 P0001 T01050105
KPPO 191935Z AUTO 22011G18KT 1 1/2SM DZ BKN003 OVC009 10/10 A2983 RMK AO2 VIS 1V3 P0001 T01030102
KPPO 191915Z AUTO 21010KT 1/2SM RA OVC003 10/10 A2983 RMK AO2 P0001 T00990099
KPPO 191855Z AUTO 21009G15KT 1/4SM -RA OVC003 10/10 A2983 RMK AO2 P0004 T00960096
KPPO 191835Z AUTO 19007KT 1/4SM RA OVC003 09/09 A2984 RMK AO2 P0004 T00920092
KPPO 191815Z AUTO 19006KT 1/4SM RA OVC003 09/09 A2985 RMK AO2 P0002 T00870087
KPPO 191755Z AUTO 18004KT 1/4SM -RA OVC003 08/08 A2986 RMK AO2 P0008 60026 T00810081 10082 20015
KPPO 191735Z AUTO 19003KT 1/4SM RA OVC003 08/08 A2987 RMK AO2 P0005 T00770077
KPPO 191715Z AUTO 17004KT 1/4SM +DZ OVC003 07/07 A2987 RMK AO2 P0002 T00710071
KPPO 191655Z AUTO 16007KT 1/4SM -RA OVC001 07/07 A2987 RMK AO2 P0009 T00710071
KPPO 191635Z AUTO 16005KT 1/4SM -RA OVC001 07/07 A2988 RMK AO2 P0006 T00660066
KPPO 191615Z AUTO 16004KT M1/4SM RA OVC001 05/05 A2989 RMK AO2 P0002 T00510051
KPPO 191555Z AUTO 14004KT M1/4SM RA OVC001 04/03 A2989 RMK AO2 P0007 T00350034
KPPO 191535Z AUTO 12006KT 1/4SM RA OVC001 03/02 A2989 RMK AO2 P0005 T00250024
KPPO 191515Z AUTO 14003KT M1/4SM +RA OVC001 03/03 A2991 RMK AO2 P0001 T00310031
KPPO 191455Z AUTO 14004KT M1/4SM -DZ OVC001 03/02 A2991 RMK AO2 60001 T00250024
KPPO 191435Z AUTO 15006KT M1/4SM FG OVC001 03/03 A2991 RMK AO2 T00310030
KPPO 191415Z AUTO 00000KT M1/4SM FG OVC001 02/02 A2991 RMK AO2 T00190019
KPPO 191355Z AUTO 14004KT M1/4SM FG OVC001 02/02 A2992 RMK AO2 LTG DSNT SW P0001 T00180017
KPPO 191335Z AUTO 00000KT M1/4SM -DZ OVC001 02/02 A2993 RMK AO2 P0001 T00180017
KPPO 191315Z AUTO 00000KT M1/4SM -RA OVC001 03/03 A2993 RMK AO2 P0001 T00260025
KPPO 191255Z AUTO 00000KT M1/4SM -SN OVC002 03/02 A2992 RMK AO2 T00250024
KPPO 191235Z AUTO 00000KT 1/4SM -RA OVC002 03/02 A2993 RMK AO2 T00250024
KPPO 191215Z AUTO 17003KT 1/2SM FG OVC002 03/03 A2993 RMK AO2 LTG DSNT SE T00300030
KPPO 191155Z AUTO 21004KT 3/4SM BR OVC002 03/03 A2995 RMK AO2 LTG DSNT SE 60002 70002 T00300030 10040 20020
KPPO 191135Z AUTO 20005KT 3/4SM BR OVC002 03/03 A2994 RMK AO2 T00300030
KPPO 191115Z AUTO 18004KT 1 1/4SM BR OVC002 03/03 A2991 RMK AO2 T00300027
KPPO 191055Z AUTO 19006KT 2 1/2SM BR OVC002 03/03 A2992 RMK AO2 T00300027
KPPO 191035Z AUTO 19006KT 3SM BR BKN002 OVC009 03/03 A2991 RMK AO2 T00300026
KPPO 191015Z AUTO 18006KT 3SM BR SCT003 BKN009 OVC013 03/03 A2991 RMK AO2 T00290025
KPPO 190955Z AUTO 17005KT 7SM OVC016 03/02 A2991 RMK AO2 LTG DSNT S T00270020
KPPO 190935Z AUTO 17006KT 10SM OVC018 03/02 A2991 RMK AO2 T00290020
KPPO 190915Z AUTO 17006KT 10SM OVC022 03/02 A2991 RMK AO2 T00290018
KPPO 190855Z AUTO 18007KT 10SM OVC024 03/02 A2991 RMK AO2 LTG DSNT SE P0001 60002 T00290015
KPPO 190835Z AUTO 19004KT 7SM RA BKN024 OVC040 03/01 A2993 RMK AO2 LTG DSNT S P0001 T00280014
KPPO 190815Z AUTO 18004KT 5SM +RA SCT022 BKN050 OVC060 03/01 A2992 RMK AO2 P0001 T00250007
KPPO 190755Z AUTO 15006KT 10SM BKN060 BKN075 OVC100 03/00 A2991 RMK AO2 P0001 T00280004
KPPO 190735Z AUTO 17004KT 7SM RA SCT030 BKN060 OVC070 04/00 A2992 RMK AO2 T00390001
KPPO 190715Z AUTO 22007KT 10SM SCT030 BKN060 BKN070 04/00 A2995 RMK AO2 T00400000
KPPO 190655Z AUTO 17007G14KT 10SM SCT075 SCT090 BKN110 04/00 A2990 RMK AO2 T00370000
KPPO 190635Z AUTO 17010KT 10SM SCT075 SCT090 BKN110 04/00 A2991 RMK AO2 LTG DSNT SW T00360000
KPPO 190615Z AUTO 16009KT 10SM SCT110 03/00 A2991 RMK AO2 T00330000
KPPO 190555Z AUTO 17009KT 10SM SCT034 SCT100 03/00 A2993 RMK AO2 LTG DSNT W T00310000 10031 21001
KPPO 190535Z AUTO 17011G15KT 10SM BKN034 03/00 A2994 RMK AO2 T00301001
KPPO 190515Z AUTO 17011G16KT 10SM SCT034 03/00 A2995 RMK AO2 T00271003
KPPO 190455Z AUTO 16007KT 10SM CLR 02/M01 A2996 RMK AO2 T00211008
KPPO 190435Z AUTO 16009KT 10SM CLR 02/M01 A2996 RMK AO2 T00221008
KPPO 190415Z AUTO 16009G15KT 10SM CLR 03/M01 A2997 RMK AO2 T00251008
KPPO 190355Z AUTO 16009KT 10SM CLR 03/M01 A2998 RMK AO2 T00251008
KPPO 190335Z AUTO 16009KT 10SM CLR 03/M01 A2999 RMK AO2 T00261007
KPPO 190315Z AUTO 16008G14KT 10SM CLR 03/M01 A3000 RMK AO2 T00271007
KPPO 190255Z AUTO 16013KT 10SM CLR 03/M01 A3000 RMK AO2 T00311007
KPPO 190235Z AUTO 16011G15KT 10SM CLR 03/M01 A3001 RMK AO2 T00311007
KPPO 190215Z AUTO 16012G20KT 10SM CLR 03/M01 A2999 RMK AO2 T00301007
KPPO 190155Z AUTO 15013KT 10SM CLR 03/M01 A3001 RMK AO2 T00251010
KPPO 190135Z AUTO 16012G16KT 10SM CLR 02/M01 A3003 RMK AO2 T00231010
KPPO 190115Z AUTO 15011KT 10SM CLR 02/M01 A3004 RMK AO2 T00181011
KPPO 190055Z AUTO 15012KT 10SM CLR 02/M01 A3004 RMK AO2 T00151011
KPPO 190035Z AUTO 15011KT 10SM CLR 01/M01 A3006 RMK AO2 T00121012
KPPO 190015Z AUTO 14010G15KT 10SM CLR 00/M02 A3007 RMK AO2 T00001020
KPPO 182355Z AUTO 14009KT 10SM CLR 00/M02 A3008 RMK AO2 T00041021 10019 21018
KPPO 182335Z AUTO 14009KT 10SM CLR 01/M02 A3009 RMK AO2 T00101020
KPPO 182315Z AUTO 15012G16KT 10SM CLR 02/M02 A3010 RMK AO2 T00171019
KPPO 182255Z AUTO 15010KT 10SM CLR 02/M02 A3011 RMK AO2 T00161023
KPPO 182235Z AUTO 15011G16KT 10SM CLR 02/M02 A3011 RMK AO2 T00171025
KPPO 182215Z AUTO 16010KT 10SM CLR 02/M03 A3011 RMK AO2 T00181026
KPPO 182155Z AUTO 15012KT 10SM CLR 02/M03 A3013 RMK AO2 T00161026
KPPO 182135Z AUTO 15012KT 10SM CLR 01/M03 A3014 RMK AO2 T00131026
KPPO 182115Z AUTO 15011KT 10SM CLR 02/M03 A3015 RMK AO2 T00151026
KPPO 182055Z AUTO 14010KT 10SM CLR 01/M03 A3016 RMK AO2 T00111026
KPPO 182035Z AUTO 14010KT 10SM CLR 01/M03 A3017 RMK AO2 T00101027
KPPO 182015Z AUTO 14010KT 10SM CLR 01/M03 A3018 RMK AO2 T00051030
KPPO 181955Z AUTO 15008G14KT 10SM CLR 01/M03 A3018 RMK AO2 T00051032
KPPO 181935Z AUTO 16009KT 10SM CLR 00/M03 A3020 RMK AO2 T00001031
KPPO 181915Z AUTO 16008KT 10SM CLR 00/M03 A3021 RMK AO2 T10041033
KPPO 181855Z AUTO 16007KT 10SM CLR M01/M03 A3024 RMK AO2 T10081035
KPPO 181835Z AUTO 16008KT 10SM SCT009 M01/M04 A3027 RMK AO2 T10111037
KPPO 181815Z AUTO 17009KT 10SM BKN009 M01/M04 A3028 RMK AO2 T10151038
KPPO 181755Z AUTO 19010KT 10SM OVC009 M02/M04 A3028 RMK AO2 T10181039
KPPO 181735Z AUTO 17006KT 10SM BKN007 M02/M04 A3030 RMK AO2 T10211036
KPPO 181715Z AUTO 19007KT 7SM BKN007 M02/M04 A3031 RMK AO2 T10241036
KPPO 181655Z AUTO 18007KT 10SM OVC007 M03/M03 A3031 RMK AO2 T10261033
KPPO 181635Z AUTO 17010KT 10SM OVC007 A3031 RMK AO2
KPPO 181615Z AUTO 18012G15KT 7SM OVC007 A3032 RMK AO2
KPPO 181555Z AUTO 17009KT 10SM OVC005 A3031 RMK AO2
KPPO 181535Z AUTO 17009G14KT 7SM OVC005 A3028 RMK AO2
KPPO 181515Z AUTO 16009KT 7SM OVC005 A3028 RMK AO2
KPPO 181455Z AUTO 15009KT 7SM OVC003 A3028 RMK AO2
KPPO 181435Z AUTO 16010KT 4SM BR OVC003 M05/M05 A3027 RMK AO2 T10471052
KPPO 181415Z AUTO 16006KT 4SM BR SCT003 M05/M05 A3029 RMK AO2 T10501055
KPPO 181355Z AUTO 15004KT 2 1/2SM BR M07/M07 A3030 RMK AO2 SKY OBSCURED T10661074
KPPO 181335Z AUTO 16005KT M1/4SM FZFG VV000 M08/M08 A3030 RMK AO2 T10771083